Time;durP1;ratioP1;P1;durP2;ratioP2;P2;SDS_P1;SDS_P2;PMS_P1;PMS_P2;Temp;Humidity;BMP_temperature;BMP_pressure;BME280_temperature;BME280_humidity;BME280_pressure;Samples;Min_cycle;Max_cycle;Signal;HPM_P1;HPM_P2
2022/07/25 00:01:40;;;;;;;6.63;6.00;;;;;;;23.69;47.61;97009.25;4991726;28;20080;-75
2022/07/25 00:04:07;;;;;;;5.28;4.78;;;;;;;23.63;48.24;97006.06;5008108;28;20038;-75
2022/07/25 00:06:33;;;;;;;5.85;5.35;;;;;;;23.60;47.96;96997.97;4974339;28;20132;-75
2022/07/25 00:08:59;;;;;;;6.38;5.78;;;;;;;23.52;48.13;96989.00;4990277;28;20045;-75
2022/07/25 00:11:24;;;;;;;5.85;5.22;;;;;;;23.50;49.00;96991.22;4975225;28;20022;-75
2022/07/25 00:13:49;;;;;;;5.90;5.38;;;;;;;23.42;49.03;96984.91;5007670;28;20033;-75
2022/07/25 00:16:15;;;;;;;6.13;5.55;;;;;;;23.43;48.98;96983.03;5007702;28;20371;-75
2022/07/25 00:18:41;;;;;;;6.38;5.78;;;;;;;23.44;49.14;96982.72;5005926;28;20038;-75
2022/07/25 00:21:06;;;;;;;6.95;6.18;;;;;;;23.43;49.17;96977.72;5006844;28;20054;-75
2022/07/25 00:23:31;;;;;;;6.18;5.57;;;;;;;23.45;49.38;96975.50;4990247;28;20538;-75
2022/07/25 00:25:57;;;;;;;6.63;5.97;;;;;;;23.42;49.45;96963.66;5007166;28;20045;-75
2022/07/25 00:28:22;;;;;;;5.85;5.25;;;;;;;23.37;49.65;96962.00;4974424;28;20099;-75
2022/07/25 00:30:48;;;;;;;7.03;5.72;;;;;;;23.34;49.70;96957.34;4990357;28;20086;-76
2022/07/25 00:33:14;;;;;;;7.70;5.82;;;;;;;23.38;49.41;96954.81;4991494;28;20042;-75
2022/07/25 00:35:39;;;;;;;6.50;5.82;;;;;;;23.36;49.79;96957.78;4991470;28;20481;-75
2022/07/25 00:38:04;;;;;;;6.07;5.53;;;;;;;23.32;49.82;96942.84;5006715;28;20188;-75
2022/07/25 00:40:30;;;;;;;6.30;5.70;;;;;;;23.35;49.86;96942.94;5005463;28;20075;-75
2022/07/25 00:42:55;;;;;;;6.30;5.70;;;;;;;23.33;49.68;96944.41;5006829;28;20034;-75
2022/07/25 00:45:20;;;;;;;6.57;5.97;;;;;;;23.30;49.50;96939.75;4972056;28;20473;-75
2022/07/25 00:47:46;;;;;;;6.07;5.57;;;;;;;23.29;49.41;96940.88;5005805;28;20034;-75
2022/07/25 00:50:11;;;;;;;6.13;5.53;;;;;;;23.40;49.45;96933.22;5005301;28;20105;-76
2022/07/25 00:52:37;;;;;;;6.50;5.90;;;;;;;23.36;49.48;96939.19;4974396;28;20030;-75
2022/07/25 00:55:03;;;;;;;6.25;5.72;;;;;;;23.30;49.72;96935.19;5007064;28;20041;-76
2022/07/25 00:57:28;;;;;;;6.18;5.57;;;;;;;23.28;49.60;96937.44;4973020;28;20037;-76
2022/07/25 00:59:54;;;;;;;6.47;5.88;;;;;;;23.31;49.50;96943.97;4985548;28;20036;-75
2022/07/25 01:02:19;;;;;;;6.18;5.57;;;;;;;23.28;49.60;96937.44;5001914;28;20108;-75
2022/07/25 01:04:44;;;;;;;6.18;5.57;;;;;;;23.25;49.61;96934.66;5005804;28;20034;-75
2022/07/25 01:07:10;;;;;;;6.60;5.88;;;;;;;23.20;49.96;96933.00;5007677;28;20029;-75
2022/07/25 01:09:36;;;;;;;6.45;5.90;;;;;;;23.21;49.45;96937.22;4974702;28;20085;-75
2022/07/25 01:12:01;;;;;;;6.38;5.82;;;;;;;23.16;49.54;96926.81;4991722;28;20111;-75
2022/07/25 01:14:26;;;;;;;5.88;5.38;;;;;;;23.05;49.83;96925.66;5008118;28;20037;-75
2022/07/25 01:16:52;;;;;;;6.30;5.70;;;;;;;23.02;49.87;96918.38;4975043;28;20528;-75
2022/07/25 01:19:17;;;;;;;6.90;6.00;;;;;;;23.02;49.98;96919.16;5007264;28;20124;-75
2022/07/25 01:21:43;;;;;;;6.78;6.07;;;;;;;22.97;50.02;96917.47;4975099;28;20094;-75
2022/07/25 01:24:09;;;;;;;6.47;5.88;;;;;;;23.00;49.67;96921.38;5007794;28;20069;-75
2022/07/25 01:26:35;;;;;;;7.65;6.40;;;;;;;23.05;49.83;96915.03;4991430;28;20498;-76
2022/07/25 01:29:00;;;;;;;6.70;6.10;;;;;;;23.03;50.10;96927.88;4974872;28;20038;-75
2022/07/25 01:31:26;;;;;;;6.45;5.68;;;;;;;22.95;50.03;96918.94;4991580;28;20484;-75
2022/07/25 01:33:51;;;;;;;6.50;5.90;;;;;;;23.00;49.97;96916.81;4974950;28;20113;-75
2022/07/25 01:36:16;;;;;;;6.43;5.82;;;;;;;22.96;50.07;96918.59;4975442;28;20502;-75
2022/07/25 01:38:42;;;;;;;6.07;5.47;;;;;;;22.87;49.82;96912.59;4991119;28;20034;-75
2022/07/25 01:41:07;;;;;;;7.20;6.50;;;;;;;22.78;50.26;96910.06;5007227;28;20037;-75
2022/07/25 01:43:33;;;;;;;7.53;6.15;;;;;;;22.73;50.74;96904.97;4988554;28;20038;-75
2022/07/25 01:45:58;;;;;;;6.07;5.57;;;;;;;22.67;50.54;96902.84;4989584;28;20026;-75
2022/07/25 01:48:23;;;;;;;6.32;5.72;;;;;;;22.67;50.51;96902.84;4974850;28;20100;-75
2022/07/25 01:50:49;;;;;;;6.43;5.78;;;;;;;22.67;50.50;96897.53;4974746;28;20731;-75
2022/07/25 01:53:14;;;;;;;6.53;5.93;;;;;;;22.62;51.04;96894.00;5007650;28;20038;-75
2022/07/25 01:55:40;;;;;;;6.68;6.07;;;;;;;22.57;51.13;96890.81;4991191;28;20077;-75
2022/07/25 01:58:06;;;;;;;6.57;5.88;;;;;;;22.54;51.23;96888.81;4974663;28;20026;-76
2022/07/25 02:00:31;;;;;;;6.72;6.13;;;;;;;22.48;50.92;96884.78;5007216;28;20066;-75
2022/07/25 02:05:40;;;;;;;6.70;6.05;;;;;;;22.48;50.83;96885.56;5009122;28;20033;-75
2022/07/25 02:08:06;;;;;;;6.57;5.90;;;;;;;22.49;50.84;96886.34;5007059;28;20437;-75
2022/07/25 02:10:31;;;;;;;6.57;5.97;;;;;;;22.47;50.95;96889.34;5007203;28;20080;-75
2022/07/25 02:12:57;;;;;;;6.65;6.05;;;;;;;22.51;51.01;96895.53;4991472;28;20088;-75
2022/07/25 02:15:22;;;;;;;6.28;5.15;;;;;;;22.48;51.20;96890.09;5007296;28;20066;-75
2022/07/25 02:17:47;;;;;;;7.20;6.50;;;;;;;22.46;51.21;96885.13;5007286;28;20056;-75
2022/07/25 02:20:13;;;;;;;6.72;5.78;;;;;;;22.39;51.41;96877.69;5006690;28;20117;-75
2022/07/25 02:22:38;;;;;;;6.72;6.13;;;;;;;22.37;51.29;96876.50;5007380;28;20121;-75
2022/07/25 02:25:04;;;;;;;6.63;6.03;;;;;;;22.34;51.61;96874.50;5007088;28;20034;-75
2022/07/25 02:27:29;;;;;;;6.32;5.75;;;;;;;22.31;52.26;96870.63;5007373;28;20038;-75
2022/07/25 02:29:55;;;;;;;6.72;5.63;;;;;;;22.27;52.08;96875.00;4974365;28;20057;-75
2022/07/25 02:32:20;;;;;;;5.97;5.47;;;;;;;22.30;51.72;96869.06;5007158;28;20056;-75
2022/07/25 02:34:45;;;;;;;6.50;5.85;;;;;;;22.30;51.56;96873.59;5008572;28;20537;-75
2022/07/25 02:37:11;;;;;;;7.10;6.43;;;;;;;22.31;51.49;96869.84;5006831;28;20030;-75
2022/07/25 02:39:37;;;;;;;6.63;6.03;;;;;;;22.29;51.43;96864.84;5006740;28;20030;-75
2022/07/25 02:42:02;;;;;;;6.45;5.85;;;;;;;22.31;51.29;96864.53;5007049;28;20524;-75
2022/07/25 02:44:28;;;;;;;6.72;6.03;;;;;;;22.26;51.53;96852.25;5006962;28;20040;-75
2022/07/25 02:46:53;;;;;;;7.00;6.32;;;;;;;22.25;51.82;96856.75;4992366;28;20048;-75
2022/07/25 02:49:18;;;;;;;7.10;6.40;;;;;;;22.23;51.70;96853.66;5010309;28;20048;-75
2022/07/25 02:51:44;;;;;;;6.35;5.75;;;;;;;22.21;51.71;96847.16;5010977;28;20041;-75
2022/07/25 02:54:09;;;;;;;7.40;6.63;;;;;;;22.24;51.77;96849.91;4994534;28;20113;-75
2022/07/25 02:56:35;;;;;;;6.25;5.65;;;;;;;22.21;51.52;96847.91;5012157;28;20041;-75
2022/07/25 02:59:00;;;;;;;8.98;6.07;;;;;;;22.21;51.84;96852.44;5010071;28;20113;-75
2022/07/25 03:01:26;;;;;;;7.22;6.35;;;;;;;22.22;51.69;96846.03;4994116;28;20034;-75
2022/07/25 03:03:51;;;;;;;7.28;6.38;;;;;;;22.25;51.94;96846.16;5010700;28;20034;-75
2022/07/25 03:06:17;;;;;;;6.93;6.22;;;;;;;22.17;52.01;96849.66;4994106;28;20037;-75
2022/07/25 03:08:42;;;;;;;6.95;6.07;;;;;;;22.14;52.07;96858.28;5010362;28;20223;-75
2022/07/25 03:11:07;;;;;;;7.40;6.50;;;;;;;22.14;51.99;96845.03;5011285;28;20034;-75
2022/07/25 03:13:33;;;;;;;6.78;6.18;;;;;;;22.11;52.27;96840.38;5010458;28;20037;-75
2022/07/25 03:15:58;;;;;;;7.65;6.40;;;;;;;22.06;52.92;96843.25;5010329;28;20034;-75
2022/07/25 03:18:24;;;;;;;6.82;6.22;;;;;;;22.03;52.82;96854.50;5009617;28;20034;-75
2022/07/25 03:20:49;;;;;;;7.10;6.47;;;;;;;22.00;52.68;96855.13;5010057;28;20129;-75
2022/07/25 03:23:14;;;;;;;7.15;6.45;;;;;;;22.03;52.65;96849.19;5010063;28;20037;-75
2022/07/25 03:25:40;;;;;;;7.28;6.65;;;;;;;22.04;52.59;96853.41;4993913;28;20087;-75
2022/07/25 03:28:05;;;;;;;6.55;5.88;;;;;;;22.04;52.65;96856.06;5010193;28;20540;-75
2022/07/25 03:30:31;;;;;;;6.65;6.05;;;;;;;21.99;52.73;96849.06;5009622;28;20034;-75
2022/07/25 03:32:56;;;;;;;7.97;7.10;;;;;;;21.94;53.51;96843.97;5011240;28;20042;-75
2022/07/25 03:35:21;;;;;;;7.75;6.40;;;;;;;21.90;53.02;96851.03;5011355;28;20037;-75
2022/07/25 03:37:47;;;;;;;7.00;6.30;;;;;;;21.89;53.13;96841.53;5009679;28;20526;-75
2022/07/25 03:40:13;;;;;;;7.30;6.60;;;;;;;21.85;53.21;96836.09;5009469;28;20076;-75
2022/07/25 03:42:39;;;;;;;7.40;6.68;;;;;;;21.85;53.04;96840.63;5010026;28;20026;-75
2022/07/25 03:45:05;;;;;;;7.43;6.72;;;;;;;21.84;53.00;96839.84;5009492;28;20293;-75
2022/07/25 03:47:30;;;;;;;7.22;6.53;;;;;;;21.91;52.80;96838.56;4993505;28;20025;-75
2022/07/25 03:49:55;;;;;;;7.18;6.47;;;;;;;21.89;52.91;96839.63;5008938;28;20057;-75
2022/07/25 03:52:21;;;;;;;7.53;6.82;;;;;;;21.92;53.02;96830.28;5009527;28;20034;-75
2022/07/25 03:54:46;;;;;;;7.10;6.40;;;;;;;21.90;53.08;96832.47;5009483;28;20042;-75
2022/07/25 03:57:11;;;;;;;6.80;6.20;;;;;;;21.88;53.18;96824.84;5008992;28;20553;-75
2022/07/25 03:59:37;;;;;;;6.97;6.38;;;;;;;21.89;52.85;96818.44;5008542;28;20045;-75
2022/07/25 04:02:02;;;;;;;8.13;6.35;;;;;;;21.95;52.97;96816.38;4992888;28;20052;-75
2022/07/25 04:04:28;;;;;;;6.90;6.30;;;;;;;21.94;53.07;96811.41;4992857;28;20034;-75
2022/07/25 04:06:53;;;;;;;7.18;6.47;;;;;;;21.97;53.35;96816.03;5009328;28;20037;-75
2022/07/25 04:09:18;;;;;;;7.50;6.60;;;;;;;21.92;53.27;96811.72;4992386;28;20056;-75
2022/07/25 04:11:44;;;;;;;7.20;6.50;;;;;;;21.94;53.43;96804.22;5010762;28;20037;-75
2022/07/25 04:14:09;;;;;;;7.32;6.63;;;;;;;21.96;53.36;96812.59;5008928;28;20030;-75
2022/07/25 04:16:35;;;;;;;7.95;7.25;;;;;;;21.95;53.55;96802.31;5010410;28;20042;-75
2022/07/25 04:19:00;;;;;;;7.10;6.40;;;;;;;21.98;53.34;96799.03;5009670;28;20041;-75
2022/07/25 04:21:26;;;;;;;7.45;6.65;;;;;;;22.05;53.32;96801.91;4992791;28;20034;-75
2022/07/25 04:23:51;;;;;;;8.20;6.95;;;;;;;22.08;53.24;96801.25;4992517;28;20033;-75
2022/07/25 04:26:16;;;;;;;8.23;6.97;;;;;;;22.10;53.41;96800.94;5008985;28;20398;-75
2022/07/25 04:28:42;;;;;;;7.40;6.68;;;;;;;22.14;53.15;96799.16;4992173;28;20054;-75
2022/07/25 04:31:07;;;;;;;8.15;7.35;;;;;;;22.14;52.99;96794.66;5009896;28;20336;-75
2022/07/25 04:33:36;;;;;;;7.35;6.65;;;;;;;22.12;52.89;96790.75;5008823;28;20120;-75
2022/07/25 04:36:01;;;;;;;7.60;6.90;;;;;;;22.24;52.86;96799.53;4992480;28;20044;-75
2022/07/25 04:38:27;;;;;;;7.78;7.00;;;;;;;22.31;52.71;96800.88;5008066;28;20034;-75
2022/07/25 04:40:52;;;;;;;7.40;6.78;;;;;;;22.35;52.55;96801.78;5009628;28;20084;-75
2022/07/25 04:43:19;;;;;;;7.90;7.10;;;;;;;22.35;52.74;96796.47;4991398;28;20045;-75
2022/07/25 04:45:44;;;;;;;6.95;6.28;;;;;;;22.41;52.92;96800.44;5005882;28;20053;-75
2022/07/25 04:48:10;;;;;;;7.45;6.75;;;;;;;22.47;52.86;96795.72;5007876;28;20470;-75
2022/07/25 04:50:35;;;;;;;7.70;7.00;;;;;;;22.49;52.83;96790.84;5009598;28;20112;-75
2022/07/25 04:53:00;;;;;;;7.28;6.63;;;;;;;22.55;52.71;96790.28;5008107;28;20061;-75
2022/07/25 04:55:26;;;;;;;7.57;6.88;;;;;;;22.59;52.97;96791.16;5008433;28;20449;-75
2022/07/25 04:57:51;;;;;;;7.65;6.88;;;;;;;22.68;52.55;96788.41;5008215;28;20026;-75
2022/07/25 05:00:17;;;;;;;7.63;6.90;;;;;;;22.72;52.63;96788.50;5008187;28;20113;-75
2022/07/25 05:02:42;;;;;;;8.27;7.47;;;;;;;22.82;52.41;96782.75;5007204;28;20053;-75
2022/07/25 05:05:08;;;;;;;7.40;6.70;;;;;;;22.83;52.48;96784.31;4974155;28;20164;-75
2022/07/25 05:07:35;;;;;;;7.68;6.97;;;;;;;22.92;52.06;96782.28;5007252;28;20038;-75
2022/07/25 05:10:00;;;;;;;7.90;7.10;;;;;;;23.00;51.99;96786.72;5006053;28;20140;-75
2022/07/25 05:12:26;;;;;;;7.43;6.82;;;;;;;23.08;52.01;96778.97;5000672;28;20112;-75
2022/07/25 05:14:52;;;;;;;7.38;6.68;;;;;;;23.14;52.18;96783.72;4990669;28;20470;-75
2022/07/25 05:17:18;;;;;;;7.43;6.72;;;;;;;23.24;51.71;96782.50;5006657;28;20037;-75
2022/07/25 05:19:43;;;;;;;8.52;7.72;;;;;;;23.29;51.88;96784.16;5008267;28;20046;-75
2022/07/25 05:22:08;;;;;;;8.00;7.20;;;;;;;23.38;51.57;96777.56;4990166;28;20037;-75
2022/07/25 05:24:35;;;;;;;7.75;6.45;;;;;;;23.44;51.49;96782.63;5007225;28;20045;-75
2022/07/25 05:27:01;;;;;;;7.57;6.88;;;;;;;23.55;51.83;96784.47;5006731;28;20034;-75
2022/07/25 05:29:27;;;;;;;7.45;6.85;;;;;;;23.62;51.38;96778.59;4974287;28;20441;-75
2022/07/25 05:31:52;;;;;;;8.27;7.47;;;;;;;23.72;51.81;96791.38;5008484;28;20034;-75
2022/07/25 05:34:18;;;;;;;7.45;6.75;;;;;;;23.81;51.41;96782.50;5007046;28;20041;-75
2022/07/25 05:36:43;;;;;;;7.80;7.05;;;;;;;23.89;51.29;96781.59;5007154;28;20046;-75
2022/07/25 05:39:09;;;;;;;8.25;7.45;;;;;;;24.03;51.53;96771.31;5006318;28;20722;-75
2022/07/25 05:41:34;;;;;;;8.10;7.32;;;;;;;24.19;51.57;96773.19;5006772;28;20038;-75
2022/07/25 05:43:59;;;;;;;8.07;7.38;;;;;;;24.33;50.39;96778.84;4984257;28;20037;-75
2022/07/25 05:46:25;;;;;;;7.75;7.05;;;;;;;24.48;50.23;96782.63;4987168;28;20038;-75
2022/07/25 05:48:50;;;;;;;7.50;6.80;;;;;;;24.58;49.97;96786.69;4971541;28;20101;-75
2022/07/25 05:51:16;;;;;;;7.57;6.88;;;;;;;24.67;49.75;96779.28;4988252;28;20030;-75
2022/07/25 05:53:41;;;;;;;7.93;7.22;;;;;;;24.86;49.45;96789.22;4988323;28;20045;-75
2022/07/25 05:56:08;;;;;;;8.32;7.57;;;;;;;24.97;48.95;96787.56;4971879;28;20486;-75
2022/07/25 05:58:33;;;;;;;7.20;6.55;;;;;;;25.09;49.07;96788.56;4987912;28;20038;-75
2022/07/25 06:00:58;;;;;;;7.95;6.60;;;;;;;25.23;48.76;96778.97;4988459;28;20049;-75
2022/07/25 06:03:24;;;;;;;7.25;6.65;;;;;;;25.42;48.01;96780.13;4988037;28;20039;-75
2022/07/25 06:05:49;;;;;;;7.60;7.00;;;;;;;25.61;47.25;96780.09;4972140;28;20030;-75
2022/07/25 06:08:15;;;;;;;7.30;6.65;;;;;;;25.82;46.83;96770.97;4989421;28;20022;-75
2022/07/25 06:10:41;;;;;;;7.57;6.97;;;;;;;26.00;46.50;96778.56;4988027;28;20069;-75
2022/07/25 06:13:07;;;;;;;7.68;6.97;;;;;;;26.11;46.69;96771.47;4971985;28;20066;-75
2022/07/25 06:15:32;;;;;;;7.15;6.55;;;;;;;26.28;46.13;96775.56;4986690;28;20026;-75
2022/07/25 06:17:58;;;;;;;8.20;6.72;;;;;;;26.43;45.82;96776.56;4987952;28;20045;-75
2022/07/25 06:20:23;;;;;;;7.50;6.80;;;;;;;26.54;45.46;96777.50;5003672;28;20046;-75
2022/07/25 06:22:48;;;;;;;7.35;6.75;;;;;;;26.64;44.79;96776.91;4991489;28;20474;-75
2022/07/25 06:25:14;;;;;;;7.45;6.75;;;;;;;26.75;44.61;96768.28;4991627;28;20111;-75
2022/07/25 06:27:40;;;;;;;7.18;6.47;;;;;;;26.85;44.46;96763.09;4975976;28;20510;-75
2022/07/25 06:30:07;;;;;;;7.22;6.63;;;;;;;27.01;43.95;96770.94;5007879;28;20069;-75
2022/07/25 06:32:32;;;;;;;7.35;6.38;;;;;;;27.23;43.55;96765.84;4991742;28;20034;-75
2022/07/25 06:34:58;;;;;;;7.15;6.43;;;;;;;27.41;42.85;96758.84;4991783;28;20037;-75
2022/07/25 06:37:23;;;;;;;6.80;6.15;;;;;;;27.65;42.57;96762.16;4992790;28;20088;-75
2022/07/25 06:39:48;;;;;;;7.00;6.40;;;;;;;27.85;42.25;96762.72;4991417;28;20202;-75
2022/07/25 06:42:14;;;;;;;7.43;6.82;;;;;;;28.16;41.44;96763.41;4993022;28;20416;-76
2022/07/25 06:44:39;;;;;;;6.72;6.22;;;;;;;28.36;41.22;96758.59;5008183;28;20034;-76
2022/07/25 06:47:09;;;;;;;6.93;6.32;;;;;;;28.58;40.47;96752.28;5007568;28;20026;-76
2022/07/25 06:49:34;;;;;;;6.90;6.32;;;;;;;28.91;39.79;96760.50;4990821;28;20251;-76
2022/07/25 06:52:00;;;;;;;7.30;6.60;;;;;;;29.22;39.30;96761.03;5007921;28;20037;-76
2022/07/25 06:54:25;;;;;;;6.38;5.88;;;;;;;29.52;37.72;96768.81;4992908;28;20105;-75
2022/07/25 06:56:50;;;;;;;6.10;5.63;;;;;;;29.94;37.50;96767.38;5007701;28;20482;-75
2022/07/25 06:59:16;;;;;;;6.82;6.13;;;;;;;30.16;37.33;96767.38;4992000;28;20038;-75
2022/07/25 07:01:41;;;;;;;6.35;5.85;;;;;;;30.42;36.72;96764.34;4992704;28;20048;-76
2022/07/25 07:04:06;;;;;;;6.60;6.00;;;;;;;30.78;35.87;96764.28;5007355;28;20042;-76
2022/07/25 07:06:32;;;;;;;6.53;6.03;;;;;;;31.06;35.41;96762.69;4992543;28;20482;-76
2022/07/25 07:08:57;;;;;;;6.75;6.25;;;;;;;31.26;35.07;96763.00;4991140;28;20026;-75
2022/07/25 07:11:22;;;;;;;6.63;6.13;;;;;;;31.63;34.13;96763.63;5007343;28;20053;-76
2022/07/25 07:13:48;;;;;;;7.78;7.07;;;;;;;31.61;34.32;96765.94;5010761;28;20088;-76
2022/07/25 07:16:13;;;;;;;6.47;6.00;;;;;;;31.83;33.62;96769.28;5012292;28;20645;-76
2022/07/25 07:18:38;;;;;;;6.90;6.30;;;;;;;32.07;33.66;96756.81;5009914;28;20168;-76
2022/07/25 07:21:05;;;;;;;6.85;6.35;;;;;;;32.20;33.03;96765.94;5010595;28;20038;-75
2022/07/25 07:23:30;;;;;;;7.53;6.93;;;;;;;32.25;33.19;96757.44;5010651;28;20029;-75
2022/07/25 07:25:56;;;;;;;7.60;6.68;;;;;;;32.54;32.14;96772.56;4994155;28;20130;-75
2022/07/25 07:28:21;;;;;;;7.25;6.65;;;;;;;32.62;32.15;96765.97;5010211;28;20485;-76
2022/07/25 07:30:47;;;;;;;6.50;5.85;;;;;;;32.75;31.80;96760.84;4994305;28;20030;-76
2022/07/25 07:33:12;;;;;;;6.57;6.00;;;;;;;32.90;31.96;96762.22;4993474;28;20083;-76
2022/07/25 07:35:38;;;;;;;6.65;6.15;;;;;;;33.05;31.70;96768.22;5011536;28;20557;-76
2022/07/25 07:38:03;;;;;;;6.55;6.05;;;;;;;33.09;32.16;96765.47;5010097;28;20544;-76
2022/07/25 07:40:28;;;;;;;7.95;7.20;;;;;;;33.41;31.80;96767.81;5009410;28;20029;-76
2022/07/25 07:42:55;;;;;;;6.80;6.20;;;;;;;33.40;30.92;96767.06;5010395;28;20037;-76
2022/07/25 07:45:24;;;;;;;7.10;6.50;;;;;;;33.55;31.46;96769.53;4994024;28;20446;-76
2022/07/25 07:47:52;;;;;;;7.13;6.60;;;;;;;33.49;31.52;96771.19;5006706;28;20054;-76
2022/07/25 07:50:21;;;;;;;6.60;6.10;;;;;;;33.76;31.01;96772.00;4989842;28;20117;-75
2022/07/25 07:52:47;;;;;;;7.35;6.75;;;;;;;33.93;30.28;96774.81;5007045;28;20026;-76
2022/07/25 07:58:00;;;;;;;;;;;;;;;33.96;30.27;96763.97;4993249;28;20045;-76
2022/07/25 08:00:26;;;;;;;6.88;6.43;;;;;;;34.32;29.75;96759.94;4973572;28;19917;-76
2022/07/25 08:02:53;;;;;;;7.72;7.03;;;;;;;34.47;29.54;96758.53;4974026;28;20065;-76
2022/07/25 08:05:26;;;;;;;6.65;6.15;;;;;;;34.30;29.67;96748.78;4990117;28;20486;-76
2022/07/25 08:07:52;;;;;;;6.60;6.00;;;;;;;34.76;29.35;96757.28;4973936;28;20026;-76
2022/07/25 08:10:23;;;;;;;7.55;7.05;;;;;;;34.89;28.96;96761.66;4989918;28;20041;-75
2022/07/25 08:12:49;;;;;;;7.53;6.85;;;;;;;35.07;28.67;96755.13;5006447;28;20041;-76
2022/07/25 08:15:15;;;;;;;7.55;7.03;;;;;;;35.23;28.47;96752.53;5005815;28;20505;-76
2022/07/25 08:17:40;;;;;;;7.18;6.60;;;;;;;35.34;28.99;96749.56;4992714;28;20041;-76
2022/07/25 08:20:09;;;;;;;8.20;7.55;;;;;;;35.33;28.68;96755.41;4992521;28;20041;-75
2022/07/25 08:22:46;;;;;;;7.60;7.05;;;;;;;35.39;28.30;96748.31;4993916;28;20030;-76
2022/07/25 08:25:13;;;;;;;7.82;7.22;;;;;;;35.60;28.73;96753.25;4992616;28;20030;-76
2022/07/25 08:27:39;;;;;;;7.70;7.20;;;;;;;35.58;28.26;96749.47;4977097;28;20057;-75
2022/07/25 08:30:05;;;;;;;6.93;6.43;;;;;;;35.49;28.06;96747.34;4992587;28;20030;-76
2022/07/25 08:32:31;;;;;;;7.07;6.57;;;;;;;35.71;27.93;96746.84;4992980;28;20062;-75
2022/07/25 08:34:58;;;;;;;6.78;6.28;;;;;;;35.58;27.65;96747.50;4976487;28;20069;-76
2022/07/25 08:37:23;;;;;;;7.15;6.63;;;;;;;35.63;27.79;96748.97;5008997;28;20053;-76
2022/07/25 08:39:52;;;;;;;7.90;7.30;;;;;;;35.76;27.97;96739.00;5008994;28;20033;-76
2022/07/25 08:42:19;;;;;;;6.90;6.32;;;;;;;35.94;27.54;96743.25;5009133;28;20125;-75
2022/07/25 08:44:49;;;;;;;7.35;6.68;;;;;;;36.29;27.09;96741.63;4988815;28;20042;-76
2022/07/25 08:47:15;;;;;;;6.95;6.32;;;;;;;36.48;27.02;96747.34;4989148;28;20026;-76
2022/07/25 08:49:40;;;;;;;7.25;6.65;;;;;;;36.34;27.11;96753.91;4988943;28;20490;-76
2022/07/25 08:52:07;;;;;;;7.22;6.53;;;;;;;36.57;26.57;96739.38;4990889;28;20741;-76
2022/07/25 08:54:34;;;;;;;7.88;7.38;;;;;;;36.78;26.32;96734.59;4989124;28;20034;-75
2022/07/25 08:56:59;;;;;;;6.97;6.47;;;;;;;36.89;26.00;96732.31;4989071;28;20077;-76
2022/07/25 08:59:24;;;;;;;7.90;7.30;;;;;;;36.91;25.73;96728.00;4988671;28;20030;-75
2022/07/25 09:01:50;;;;;;;7.65;7.15;;;;;;;37.00;25.72;96729.31;4990421;28;20026;-76
2022/07/25 09:04:15;;;;;;;7.13;6.63;;;;;;;36.88;25.70;96736.22;4989050;28;20034;-76
2022/07/25 09:06:50;;;;;;;7.38;6.88;;;;;;;36.99;25.92;96730.50;4990320;28;20038;-76
2022/07/25 09:09:16;;;;;;;6.82;6.30;;;;;;;37.17;25.61;96733.47;4988866;28;20026;-76
2022/07/25 09:11:41;;;;;;;7.10;6.60;;;;;;;37.27;25.20;96724.28;4988961;28;20026;-76
2022/07/25 09:14:10;;;;;;;7.53;6.95;;;;;;;37.21;26.18;96727.97;4995574;28;20478;-75
2022/07/25 09:16:37;;;;;;;7.05;6.55;;;;;;;37.60;24.98;96724.06;5008275;28;20030;-76
2022/07/25 09:19:14;;;;;;;7.18;6.57;;;;;;;37.57;25.38;96724.94;5009519;28;20494;-76
2022/07/25 09:21:40;;;;;;;7.53;6.93;;;;;;;37.54;24.47;96725.78;5008270;28;20056;-76
2022/07/25 09:24:10;;;;;;;7.10;6.60;;;;;;;37.43;24.56;96728.84;4992074;28;20485;-76
2022/07/25 09:26:50;;;;;;;7.93;7.35;;;;;;;36.97;25.60;96722.78;5008348;28;20034;-76
2022/07/25 09:29:24;;;;;;;7.43;6.93;;;;;;;36.60;26.52;96727.66;4991626;28;20026;-76
2022/07/25 09:31:51;;;;;;;7.57;7.07;;;;;;;36.81;26.17;96725.56;4975998;28;20334;-76
2022/07/25 09:34:33;;;;;;;6.78;6.38;;;;;;;36.85;25.45;96718.84;4991628;28;20104;-76
2022/07/25 09:36:59;;;;;;;6.93;6.40;;;;;;;37.09;25.58;96713.91;5008446;28;20112;-75
2022/07/25 09:39:44;;;;;;;6.72;6.28;;;;;;;37.14;25.39;96719.97;4991198;28;20029;-76
2022/07/25 09:42:23;;;;;;;6.80;6.28;;;;;;;37.30;25.12;96717.97;4991855;28;20036;-76
2022/07/25 09:45:03;;;;;;;6.78;6.28;;;;;;;37.56;24.50;96719.94;4996273;28;20137;-75
2022/07/25 09:47:29;;;;;;;6.80;6.40;;;;;;;37.82;23.92;96723.41;4989744;28;20105;-75
2022/07/25 09:49:55;;;;;;;7.10;6.60;;;;;;;37.74;24.31;96727.56;5004079;28;20088;-75
2022/07/25 09:52:21;;;;;;;7.15;6.55;;;;;;;37.86;24.26;96715.91;4988702;28;20045;-76
2022/07/25 09:54:47;;;;;;;6.43;5.93;;;;;;;37.79;24.82;96716.91;4988365;28;20327;-76
2022/07/25 09:57:13;;;;;;;7.15;6.45;;;;;;;37.71;24.15;96712.88;4989823;28;20034;-76
2022/07/25 09:59:38;;;;;;;6.75;6.15;;;;;;;37.70;24.32;96699.72;5004435;28;20052;-76
2022/07/25 10:02:08;;;;;;;6.70;6.20;;;;;;;37.98;23.56;96717.84;5004508;28;20441;-76
2022/07/25 10:04:36;;;;;;;6.18;5.78;;;;;;;37.82;23.09;96713.31;4988210;28;20077;-75
2022/07/25 10:07:08;;;;;;;6.45;5.93;;;;;;;37.90;22.92;96715.78;4989398;28;20092;-76
2022/07/25 10:09:40;;;;;;;6.05;5.57;;;;;;;37.93;23.60;96714.94;4987555;28;20550;-75
2022/07/25 10:12:08;;;;;;;6.35;5.90;;;;;;;37.80;23.07;96709.50;5004810;28;20038;-75
2022/07/25 10:14:35;;;;;;;6.13;5.72;;;;;;;37.80;23.74;96714.94;4981920;28;20034;-76
2022/07/25 10:17:00;;;;;;;6.80;6.30;;;;;;;37.75;23.67;96718.19;4991234;28;20493;-76
2022/07/25 10:19:38;;;;;;;6.07;5.57;;;;;;;37.77;23.82;96716.59;5006972;28;20034;-76
2022/07/25 10:22:03;;;;;;;6.20;5.70;;;;;;;37.73;23.94;96721.34;5009111;28;20342;-76
2022/07/25 10:24:34;;;;;;;5.53;5.07;;;;;;;37.86;23.96;96707.75;4975022;28;20163;-76
2022/07/25 10:27:06;;;;;;;6.25;5.70;;;;;;;38.00;23.52;96712.72;4975189;28;20026;-76
2022/07/25 10:29:34;;;;;;;6.15;5.75;;;;;;;37.69;23.04;96709.84;5007177;28;20022;-76
2022/07/25 10:32:10;;;;;;;5.97;5.47;;;;;;;37.25;24.35;96709.59;5007577;28;20070;-76
2022/07/25 10:34:36;;;;;;;6.38;5.88;;;;;;;37.15;24.57;96699.81;5008808;28;20049;-76
2022/07/25 10:37:28;;;;;;;6.57;6.07;;;;;;;36.88;24.21;96703.66;4974988;28;20160;-76
2022/07/25 10:39:55;;;;;;;5.90;5.35;;;;;;;36.69;24.95;96714.28;5004260;28;20078;-76
2022/07/25 10:42:21;;;;;;;5.38;4.97;;;;;;;36.54;24.47;96707.69;5007454;28;20030;-76
2022/07/25 10:44:49;;;;;;;6.35;5.85;;;;;;;36.35;25.00;96718.22;4962574;28;20019;-75
2022/07/25 10:47:15;;;;;;;5.40;4.90;;;;;;;36.28;24.74;96712.22;4987749;28;20383;-76
2022/07/25 10:49:46;;;;;;;5.63;5.22;;;;;;;36.32;25.29;96700.09;4987221;28;20062;-76
2022/07/25 10:52:17;;;;;;;5.60;5.20;;;;;;;36.30;25.21;96702.47;4987787;28;20478;-76
2022/07/25 10:54:52;;;;;;;6.18;5.68;;;;;;;36.19;25.49;96704.66;4987825;28;20034;-75
2022/07/25 10:57:17;;;;;;;6.35;5.85;;;;;;;36.18;25.70;96708.59;4971658;28;20077;-76
2022/07/25 10:59:43;;;;;;;5.88;5.38;;;;;;;36.41;25.16;96702.19;4987258;28;20545;-75
2022/07/25 11:02:16;;;;;;;6.15;5.75;;;;;;;36.59;25.65;96712.56;4987688;28;20035;-76
2022/07/25 11:04:56;;;;;;;6.30;5.90;;;;;;;37.00;23.61;96704.88;4972215;28;20023;-76
2022/07/25 11:07:21;;;;;;;6.45;5.95;;;;;;;37.36;24.25;96695.69;4972438;28;20030;-76
2022/07/25 11:09:55;;;;;;;6.20;5.70;;;;;;;37.31;23.93;96707.88;4990941;28;20034;-76
2022/07/25 11:12:20;;;;;;;;;;;;;;;36.92;25.07;96707.03;4993041;28;20030;-76
2022/07/25 11:14:46;;;;;;;5.50;5.10;;;;;;;37.17;23.57;96697.41;4986853;28;20098;-76
2022/07/25 11:17:14;;;;;;;5.82;5.32;;;;;;;37.47;23.99;96699.63;5010165;28;20061;-76
2022/07/25 11:19:53;;;;;;;5.82;5.32;;;;;;;37.19;23.68;96712.13;5011753;28;20084;-76
2022/07/25 11:22:18;;;;;;;5.65;5.25;;;;;;;37.76;23.53;96711.59;5010537;28;20707;-75
2022/07/25 11:24:45;;;;;;;5.57;5.18;;;;;;;37.87;23.34;96703.06;5011968;28;20124;-75
2022/07/25 11:27:19;;;;;;;6.40;5.93;;;;;;;37.89;23.38;96711.53;5010455;28;20030;-76
2022/07/25 11:29:45;;;;;;;6.22;5.72;;;;;;;37.91;22.85;96706.44;5010420;28;20041;-76
2022/07/25 11:32:11;;;;;;;5.97;5.47;;;;;;;37.92;22.99;96716.13;4993968;28;20482;-76
2022/07/25 11:34:40;;;;;;;5.95;5.50;;;;;;;37.86;22.60;96713.19;4977920;28;20485;-76
2022/07/25 11:37:07;;;;;;;6.03;5.55;;;;;;;37.71;23.31;96699.31;5010267;28;20370;-76